sensor_id;sensor_type;location;lat;lon;timestamp;temperature;humidity
43151;DHT22;28755;51.478;5.702;2023-07-31T00:01:14;16.90;99.90
43151;DHT22;28755;51.478;5.702;2023-07-31T00:03:40;17.00;99.90
43151;DHT22;28755;51.478;5.702;2023-07-31T00:06:05;17.00;99.90
43151;DHT22;28755;51.478;5.702;2023-07-31T00:08:31;16.80;99.90
43151;DHT22;28755;51.478;5.702;2023-07-31T00:10:56;16.90;99.90
43151;DHT22;28755;51.478;5.702;2023-07-31T00:13:22;17.00;99.90
43151;DHT22;28755;51.478;5.702;2023-07-31T00:15:47;16.90;99.90
43151;DHT22;28755;51.478;5.702;2023-07-31T00:18:13;16.90;99.90
43151;DHT22;28755;51.478;5.702;2023-07-31T00:20:39;17.00;99.90
43151;DHT22;28755;51.478;5.702;2023-07-31T00:23:04;17.00;99.90
43151;DHT22;28755;51.478;5.702;2023-07-31T00:25:30;16.90;99.90
43151;DHT22;28755;51.478;5.702;2023-07-31T00:27:55;16.90;99.90
43151;DHT22;28755;51.478;5.702;2023-07-31T00:30:21;16.90;99.90
43151;DHT22;28755;51.478;5.702;2023-07-31T00:32:47;17.00;99.90
43151;DHT22;28755;51.478;5.702;2023-07-31T00:35:13;16.90;99.90
43151;DHT22;28755;51.478;5.702;2023-07-31T00:37:38;16.90;99.90
43151;DHT22;28755;51.478;5.702;2023-07-31T00:40:04;16.90;99.90
43151;DHT22;28755;51.478;5.702;2023-07-31T00:42:30;16.90;99.90
43151;DHT22;28755;51.478;5.702;2023-07-31T00:44:56;16.90;99.90
43151;DHT22;28755;51.478;5.702;2023-07-31T00:47:21;16.90;99.90
43151;DHT22;28755;51.478;5.702;2023-07-31T00:49:47;16.90;99.90
43151;DHT22;28755;51.478;5.702;2023-07-31T00:52:13;16.90;99.90
43151;DHT22;28755;51.478;5.702;2023-07-31T00:54:39;16.90;99.90
43151;DHT22;28755;51.478;5.702;2023-07-31T00:57:04;17.00;99.90
43151;DHT22;28755;51.478;5.702;2023-07-31T00:59:30;17.00;99.90
43151;DHT22;28755;51.478;5.702;2023-07-31T01:01:56;17.00;99.90
43151;DHT22;28755;51.478;5.702;2023-07-31T01:04:21;17.00;99.90
43151;DHT22;28755;51.478;5.702;2023-07-31T01:07:04;16.90;99.90
43151;DHT22;28755;51.478;5.702;2023-07-31T01:09:59;16.90;99.90
43151;DHT22;28755;51.478;5.702;2023-07-31T01:12:28;17.00;99.90
43151;DHT22;28755;51.478;5.702;2023-07-31T01:17:26;17.00;99.90
43151;DHT22;28755;51.478;5.702;2023-07-31T01:19:53;16.90;99.90
43151;DHT22;28755;51.478;5.702;2023-07-31T01:22:24;16.90;99.90
43151;DHT22;28755;51.478;5.702;2023-07-31T01:27:44;16.90;99.90
43151;DHT22;28755;51.478;5.702;2023-07-31T01:30:16;16.90;99.90
43151;DHT22;28755;51.478;5.702;2023-07-31T01:32:43;16.90;99.90
43151;DHT22;28755;51.478;5.702;2023-07-31T01:35:11;16.90;99.90
43151;DHT22;28755;51.478;5.702;2023-07-31T01:37:37;16.80;99.90
43151;DHT22;28755;51.478;5.702;2023-07-31T01:40:03;16.90;99.90
43151;DHT22;28755;51.478;5.702;2023-07-31T01:42:29;16.90;99.90
43151;DHT22;28755;51.478;5.702;2023-07-31T01:44:55;16.90;99.90
43151;DHT22;28755;51.478;5.702;2023-07-31T01:47:20;16.90;99.90
43151;DHT22;28755;51.478;5.702;2023-07-31T01:49:46;16.80;99.90
43151;DHT22;28755;51.478;5.702;2023-07-31T01:52:11;16.80;99.90
43151;DHT22;28755;51.478;5.702;2023-07-31T01:54:37;16.90;99.90
43151;DHT22;28755;51.478;5.702;2023-07-31T01:57:02;16.80;99.90
43151;DHT22;28755;51.478;5.702;2023-07-31T01:59:28;16.90;99.90
43151;DHT22;28755;51.478;5.702;2023-07-31T02:01:54;16.80;99.90
43151;DHT22;28755;51.478;5.702;2023-07-31T02:04:20;16.80;99.90
43151;DHT22;28755;51.478;5.702;2023-07-31T02:06:45;16.80;99.90
43151;DHT22;28755;51.478;5.702;2023-07-31T02:09:11;16.80;99.90
43151;DHT22;28755;51.478;5.702;2023-07-31T02:11:36;16.80;99.90
43151;DHT22;28755;51.478;5.702;2023-07-31T02:14:02;16.80;99.90
43151;DHT22;28755;51.478;5.702;2023-07-31T02:16:27;16.80;99.90
43151;DHT22;28755;51.478;5.702;2023-07-31T02:18:53;16.70;99.90
43151;DHT22;28755;51.478;5.702;2023-07-31T02:21:18;16.80;99.90
43151;DHT22;28755;51.478;5.702;2023-07-31T02:23:44;16.70;99.90
43151;DHT22;28755;51.478;5.702;2023-07-31T02:26:09;16.70;99.90
43151;DHT22;28755;51.478;5.702;2023-07-31T02:28:35;16.70;99.90
43151;DHT22;28755;51.478;5.702;2023-07-31T02:31:01;16.80;99.90
43151;DHT22;28755;51.478;5.702;2023-07-31T02:33:26;16.70;99.90
43151;DHT22;28755;51.478;5.702;2023-07-31T02:35:52;16.70;99.90
43151;DHT22;28755;51.478;5.702;2023-07-31T02:38:17;16.70;99.90
43151;DHT22;28755;51.478;5.702;2023-07-31T02:40:43;16.70;99.90
43151;DHT22;28755;51.478;5.702;2023-07-31T02:43:08;16.70;99.90
43151;DHT22;28755;51.478;5.702;2023-07-31T02:45:34;16.70;99.90
43151;DHT22;28755;51.478;5.702;2023-07-31T02:48:00;16.70;99.90
43151;DHT22;28755;51.478;5.702;2023-07-31T02:50:25;16.80;99.90
43151;DHT22;28755;51.478;5.702;2023-07-31T02:52:52;16.70;99.90
43151;DHT22;28755;51.478;5.702;2023-07-31T02:55:18;16.80;99.90
43151;DHT22;28755;51.478;5.702;2023-07-31T02:57:44;16.80;99.90
43151;DHT22;28755;51.478;5.702;2023-07-31T03:00:09;16.80;99.90
43151;DHT22;28755;51.478;5.702;2023-07-31T03:02:35;16.80;99.90
43151;DHT22;28755;51.478;5.702;2023-07-31T03:05:00;16.70;99.90
43151;DHT22;28755;51.478;5.702;2023-07-31T03:07:26;16.70;99.90
43151;DHT22;28755;51.478;5.702;2023-07-31T03:09:52;16.80;99.90
43151;DHT22;28755;51.478;5.702;2023-07-31T03:12:17;16.80;99.90
43151;DHT22;28755;51.478;5.702;2023-07-31T03:14:43;16.90;99.90
43151;DHT22;28755;51.478;5.702;2023-07-31T03:17:08;16.90;99.90
43151;DHT22;28755;51.478;5.702;2023-07-31T03:19:34;16.90;99.90
43151;DHT22;28755;51.478;5.702;2023-07-31T03:22:00;16.90;99.90
43151;DHT22;28755;51.478;5.702;2023-07-31T03:24:26;16.80;99.90
43151;DHT22;28755;51.478;5.702;2023-07-31T03:26:51;16.90;99.90
43151;DHT22;28755;51.478;5.702;2023-07-31T03:29:17;16.90;99.90
43151;DHT22;28755;51.478;5.702;2023-07-31T03:31:42;16.90;99.90
43151;DHT22;28755;51.478;5.702;2023-07-31T03:34:08;17.00;99.90
43151;DHT22;28755;51.478;5.702;2023-07-31T03:36:33;16.90;99.90
43151;DHT22;28755;51.478;5.702;2023-07-31T03:38:59;17.00;99.90
43151;DHT22;28755;51.478;5.702;2023-07-31T03:41:24;17.00;99.90
43151;DHT22;28755;51.478;5.702;2023-07-31T03:43:51;17.00;99.90
43151;DHT22;28755;51.478;5.702;2023-07-31T03:46:24;17.00;99.90
43151;DHT22;28755;51.478;5.702;2023-07-31T03:48:49;16.90;99.90
43151;DHT22;28755;51.478;5.702;2023-07-31T03:51:15;17.00;99.90
43151;DHT22;28755;51.478;5.702;2023-07-31T03:53:41;17.00;99.90
43151;DHT22;28755;51.478;5.702;2023-07-31T03:56:06;17.00;99.90
43151;DHT22;28755;51.478;5.702;2023-07-31T03:58:32;16.90;99.90
43151;DHT22;28755;51.478;5.702;2023-07-31T04:00:57;17.00;99.90
43151;DHT22;28755;51.478;5.702;2023-07-31T04:03:23;17.00;99.90
43151;DHT22;28755;51.478;5.702;2023-07-31T04:05:48;17.00;99.90
43151;DHT22;28755;51.478;5.702;2023-07-31T04:08:14;17.00;99.90
43151;DHT22;28755;51.478;5.702;2023-07-31T04:10:39;17.00;99.90
43151;DHT22;28755;51.478;5.702;2023-07-31T04:13:05;17.10;99.90
43151;DHT22;28755;51.478;5.702;2023-07-31T04:15:30;17.10;99.90
43151;DHT22;28755;51.478;5.702;2023-07-31T04:17:56;17.20;99.90
43151;DHT22;28755;51.478;5.702;2023-07-31T04:20:21;17.20;99.90
43151;DHT22;28755;51.478;5.702;2023-07-31T04:22:47;17.20;99.90
43151;DHT22;28755;51.478;5.702;2023-07-31T04:25:13;17.20;99.90
43151;DHT22;28755;51.478;5.702;2023-07-31T04:27:39;17.20;99.90
43151;DHT22;28755;51.478;5.702;2023-07-31T04:30:05;17.20;99.90
43151;DHT22;28755;51.478;5.702;2023-07-31T04:32:31;17.20;99.90
43151;DHT22;28755;51.478;5.702;2023-07-31T04:34:57;17.30;99.90
43151;DHT22;28755;51.478;5.702;2023-07-31T04:37:22;17.30;99.90
43151;DHT22;28755;51.478;5.702;2023-07-31T04:39:48;17.40;99.90
43151;DHT22;28755;51.478;5.702;2023-07-31T04:42:13;17.40;99.90
43151;DHT22;28755;51.478;5.702;2023-07-31T04:44:39;17.40;99.90
43151;DHT22;28755;51.478;5.702;2023-07-31T04:47:04;17.40;99.90
43151;DHT22;28755;51.478;5.702;2023-07-31T04:49:31;17.40;99.90
43151;DHT22;28755;51.478;5.702;2023-07-31T04:51:56;17.40;99.90
43151;DHT22;28755;51.478;5.702;2023-07-31T04:54:22;17.40;99.90
43151;DHT22;28755;51.478;5.702;2023-07-31T04:56:47;17.50;99.90
43151;DHT22;28755;51.478;5.702;2023-07-31T04:59:13;17.40;99.90
43151;DHT22;28755;51.478;5.702;2023-07-31T05:01:38;17.40;99.90
43151;DHT22;28755;51.478;5.702;2023-07-31T05:04:04;17.40;99.90
43151;DHT22;28755;51.478;5.702;2023-07-31T05:06:30;17.50;99.90
43151;DHT22;28755;51.478;5.702;2023-07-31T05:08:55;17.50;99.90
43151;DHT22;28755;51.478;5.702;2023-07-31T05:11:21;17.50;99.90
43151;DHT22;28755;51.478;5.702;2023-07-31T05:13:46;17.50;99.90
43151;DHT22;28755;51.478;5.702;2023-07-31T05:16:12;17.50;99.90
43151;DHT22;28755;51.478;5.702;2023-07-31T05:18:37;17.50;99.90
43151;DHT22;28755;51.478;5.702;2023-07-31T05:21:03;17.50;99.90
43151;DHT22;28755;51.478;5.702;2023-07-31T05:23:28;17.50;99.90
43151;DHT22;28755;51.478;5.702;2023-07-31T05:25:54;17.40;99.90
43151;DHT22;28755;51.478;5.702;2023-07-31T05:28:21;17.40;99.90
43151;DHT22;28755;51.478;5.702;2023-07-31T05:30:47;17.40;99.90
43151;DHT22;28755;51.478;5.702;2023-07-31T05:33:12;17.30;99.90
43151;DHT22;28755;51.478;5.702;2023-07-31T05:35:38;17.30;99.90
43151;DHT22;28755;51.478;5.702;2023-07-31T05:38:03;17.30;99.90
43151;DHT22;28755;51.478;5.702;2023-07-31T05:40:32;17.20;99.90
43151;DHT22;28755;51.478;5.702;2023-07-31T05:42:58;17.20;99.90
43151;DHT22;28755;51.478;5.702;2023-07-31T05:45:25;17.10;99.90
43151;DHT22;28755;51.478;5.702;2023-07-31T05:47:50;17.20;99.90
43151;DHT22;28755;51.478;5.702;2023-07-31T05:50:16;17.20;99.90
43151;DHT22;28755;51.478;5.702;2023-07-31T05:52:41;17.20;99.90
43151;DHT22;28755;51.478;5.702;2023-07-31T05:55:08;17.20;99.90
43151;DHT22;28755;51.478;5.702;2023-07-31T05:57:33;17.20;99.90
43151;DHT22;28755;51.478;5.702;2023-07-31T05:59:59;17.10;99.90
43151;DHT22;28755;51.478;5.702;2023-07-31T06:02:24;17.10;99.90
43151;DHT22;28755;51.478;5.702;2023-07-31T06:04:50;17.10;99.90
43151;DHT22;28755;51.478;5.702;2023-07-31T06:07:15;17.00;99.90
43151;DHT22;28755;51.478;5.702;2023-07-31T06:09:41;17.00;99.90
43151;DHT22;28755;51.478;5.702;2023-07-31T06:12:07;17.00;99.90
43151;DHT22;28755;51.478;5.702;2023-07-31T06:14:32;17.00;99.90
43151;DHT22;28755;51.478;5.702;2023-07-31T06:16:58;16.90;99.90
43151;DHT22;28755;51.478;5.702;2023-07-31T06:19:23;16.90;99.90
43151;DHT22;28755;51.478;5.702;2023-07-31T06:21:49;16.90;99.90
43151;DHT22;28755;51.478;5.702;2023-07-31T06:24:14;17.00;99.90
43151;DHT22;28755;51.478;5.702;2023-07-31T06:26:44;16.90;99.90
43151;DHT22;28755;51.478;5.702;2023-07-31T06:29:10;16.90;99.90
43151;DHT22;28755;51.478;5.702;2023-07-31T06:31:35;16.90;99.90
43151;DHT22;28755;51.478;5.702;2023-07-31T06:34:01;16.80;99.90
43151;DHT22;28755;51.478;5.702;2023-07-31T06:36:26;16.90;99.90
43151;DHT22;28755;51.478;5.702;2023-07-31T06:38:52;16.90;99.90
43151;DHT22;28755;51.478;5.702;2023-07-31T06:41:17;16.90;99.90
43151;DHT22;28755;51.478;5.702;2023-07-31T06:43:43;16.90;99.90
43151;DHT22;28755;51.478;5.702;2023-07-31T06:46:09;16.90;99.90
43151;DHT22;28755;51.478;5.702;2023-07-31T06:48:35;16.90;99.90
43151;DHT22;28755;51.478;5.702;2023-07-31T06:51:02;16.90;99.90
43151;DHT22;28755;51.478;5.702;2023-07-31T06:53:28;16.90;99.90
43151;DHT22;28755;51.478;5.702;2023-07-31T06:55:53;17.00;99.90
43151;DHT22;28755;51.478;5.702;2023-07-31T06:58:20;17.00;99.90
43151;DHT22;28755;51.478;5.702;2023-07-31T07:00:45;17.00;99.90
43151;DHT22;28755;51.478;5.702;2023-07-31T07:03:11;17.00;99.90
43151;DHT22;28755;51.478;5.702;2023-07-31T07:05:36;17.00;99.90
43151;DHT22;28755;51.478;5.702;2023-07-31T07:08:02;17.10;99.90
43151;DHT22;28755;51.478;5.702;2023-07-31T07:10:27;17.00;99.90
43151;DHT22;28755;51.478;5.702;2023-07-31T07:12:53;17.00;99.90
43151;DHT22;28755;51.478;5.702;2023-07-31T07:15:20;17.00;99.90
43151;DHT22;28755;51.478;5.702;2023-07-31T07:17:46;17.00;99.90
43151;DHT22;28755;51.478;5.702;2023-07-31T07:20:12;17.10;99.90
43151;DHT22;28755;51.478;5.702;2023-07-31T07:22:38;17.00;99.90
43151;DHT22;28755;51.478;5.702;2023-07-31T07:25:05;17.10;99.90
43151;DHT22;28755;51.478;5.702;2023-07-31T07:27:32;17.10;99.90
43151;DHT22;28755;51.478;5.702;2023-07-31T07:29:58;17.10;99.90
43151;DHT22;28755;51.478;5.702;2023-07-31T07:32:24;17.10;99.90
43151;DHT22;28755;51.478;5.702;2023-07-31T07:34:49;17.10;99.90
43151;DHT22;28755;51.478;5.702;2023-07-31T07:37:15;17.10;99.90
43151;DHT22;28755;51.478;5.702;2023-07-31T07:39:41;17.00;99.90
43151;DHT22;28755;51.478;5.702;2023-07-31T07:42:06;17.10;99.90
43151;DHT22;28755;51.478;5.702;2023-07-31T07:44:32;17.10;99.90
43151;DHT22;28755;51.478;5.702;2023-07-31T07:46:57;17.10;99.90
43151;DHT22;28755;51.478;5.702;2023-07-31T07:49:23;17.10;99.90
43151;DHT22;28755;51.478;5.702;2023-07-31T07:51:49;17.00;99.90
43151;DHT22;28755;51.478;5.702;2023-07-31T07:54:15;17.10;99.90
43151;DHT22;28755;51.478;5.702;2023-07-31T07:56:42;17.00;99.90
43151;DHT22;28755;51.478;5.702;2023-07-31T07:59:08;17.00;99.90
43151;DHT22;28755;51.478;5.702;2023-07-31T08:01:33;17.00;99.90
43151;DHT22;28755;51.478;5.702;2023-07-31T08:03:59;17.10;99.90
43151;DHT22;28755;51.478;5.702;2023-07-31T08:06:25;17.10;99.90
43151;DHT22;28755;51.478;5.702;2023-07-31T08:08:50;17.00;99.90
43151;DHT22;28755;51.478;5.702;2023-07-31T08:11:16;17.10;99.90
43151;DHT22;28755;51.478;5.702;2023-07-31T08:13:42;17.10;99.90
43151;DHT22;28755;51.478;5.702;2023-07-31T08:19:38;17.10;99.90
43151;DHT22;28755;51.478;5.702;2023-07-31T08:22:04;17.10;99.90
43151;DHT22;28755;51.478;5.702;2023-07-31T08:24:29;17.20;99.90
43151;DHT22;28755;51.478;5.702;2023-07-31T08:26:55;17.20;99.90
43151;DHT22;28755;51.478;5.702;2023-07-31T08:29:20;17.20;99.90
43151;DHT22;28755;51.478;5.702;2023-07-31T08:31:46;17.30;99.90
43151;DHT22;28755;51.478;5.702;2023-07-31T08:34:11;17.30;99.90
43151;DHT22;28755;51.478;5.702;2023-07-31T08:36:37;17.30;99.90
43151;DHT22;28755;51.478;5.702;2023-07-31T08:39:02;17.30;99.90
43151;DHT22;28755;51.478;5.702;2023-07-31T08:41:29;17.30;99.90
43151;DHT22;28755;51.478;5.702;2023-07-31T08:43:55;17.30;99.90
43151;DHT22;28755;51.478;5.702;2023-07-31T08:46:22;17.30;99.90
43151;DHT22;28755;51.478;5.702;2023-07-31T08:48:47;17.30;99.90
43151;DHT22;28755;51.478;5.702;2023-07-31T08:51:14;17.30;99.90
43151;DHT22;28755;51.478;5.702;2023-07-31T08:53:40;17.30;99.90
43151;DHT22;28755;51.478;5.702;2023-07-31T08:56:06;17.30;99.90
43151;DHT22;28755;51.478;5.702;2023-07-31T08:58:32;17.40;99.90
43151;DHT22;28755;51.478;5.702;2023-07-31T09:01:01;17.30;99.90
43151;DHT22;28755;51.478;5.702;2023-07-31T09:03:28;17.40;99.90
43151;DHT22;28755;51.478;5.702;2023-07-31T09:05:56;17.30;99.90
43151;DHT22;28755;51.478;5.702;2023-07-31T09:08:23;17.30;99.90
43151;DHT22;28755;51.478;5.702;2023-07-31T09:10:49;17.30;99.90
43151;DHT22;28755;51.478;5.702;2023-07-31T09:13:15;17.40;99.90
43151;DHT22;28755;51.478;5.702;2023-07-31T09:15:44;17.40;99.90
43151;DHT22;28755;51.478;5.702;2023-07-31T09:18:10;17.40;99.90
43151;DHT22;28755;51.478;5.702;2023-07-31T09:20:36;17.50;99.90
43151;DHT22;28755;51.478;5.702;2023-07-31T09:23:20;17.60;99.90
43151;DHT22;28755;51.478;5.702;2023-07-31T09:25:47;17.50;99.90
43151;DHT22;28755;51.478;5.702;2023-07-31T09:28:12;17.60;99.90
43151;DHT22;28755;51.478;5.702;2023-07-31T09:30:49;17.70;99.90
43151;DHT22;28755;51.478;5.702;2023-07-31T09:33:16;17.70;99.90
43151;DHT22;28755;51.478;5.702;2023-07-31T09:35:42;17.80;99.90
43151;DHT22;28755;51.478;5.702;2023-07-31T09:38:12;17.80;99.90
43151;DHT22;28755;51.478;5.702;2023-07-31T09:40:45;17.70;99.90
43151;DHT22;28755;51.478;5.702;2023-07-31T09:43:21;17.90;99.90
43151;DHT22;28755;51.478;5.702;2023-07-31T09:45:47;18.00;99.90
43151;DHT22;28755;51.478;5.702;2023-07-31T09:48:15;18.10;99.90
43151;DHT22;28755;51.478;5.702;2023-07-31T09:50:48;18.10;99.90
43151;DHT22;28755;51.478;5.702;2023-07-31T09:53:15;18.10;99.90
43151;DHT22;28755;51.478;5.702;2023-07-31T09:55:41;18.20;99.90
43151;DHT22;28755;51.478;5.702;2023-07-31T09:58:12;18.20;99.90
43151;DHT22;28755;51.478;5.702;2023-07-31T10:00:38;18.20;99.90
43151;DHT22;28755;51.478;5.702;2023-07-31T10:03:08;18.20;99.90
43151;DHT22;28755;51.478;5.702;2023-07-31T10:05:35;18.20;99.90
43151;DHT22;28755;51.478;5.702;2023-07-31T10:08:01;18.30;99.90
43151;DHT22;28755;51.478;5.702;2023-07-31T10:10:27;18.30;99.90
43151;DHT22;28755;51.478;5.702;2023-07-31T10:12:54;18.30;99.90
43151;DHT22;28755;51.478;5.702;2023-07-31T10:15:21;18.40;99.90
43151;DHT22;28755;51.478;5.702;2023-07-31T10:17:48;18.30;99.90
43151;DHT22;28755;51.478;5.702;2023-07-31T10:20:15;18.20;99.90
43151;DHT22;28755;51.478;5.702;2023-07-31T10:22:42;18.30;99.90
43151;DHT22;28755;51.478;5.702;2023-07-31T10:25:09;18.20;99.90
43151;DHT22;28755;51.478;5.702;2023-07-31T10:27:39;18.30;99.90
43151;DHT22;28755;51.478;5.702;2023-07-31T10:30:08;18.30;99.90
43151;DHT22;28755;51.478;5.702;2023-07-31T10:32:34;18.40;99.90
43151;DHT22;28755;51.478;5.702;2023-07-31T10:35:02;18.50;99.90
43151;DHT22;28755;51.478;5.702;2023-07-31T10:45:39;18.50;99.90
43151;DHT22;28755;51.478;5.702;2023-07-31T10:48:12;18.60;99.90
43151;DHT22;28755;51.478;5.702;2023-07-31T10:50:49;18.60;99.90
43151;DHT22;28755;51.478;5.702;2023-07-31T10:53:24;18.60;99.90
43151;DHT22;28755;51.478;5.702;2023-07-31T10:55:50;18.60;99.90
43151;DHT22;28755;51.478;5.702;2023-07-31T10:58:20;18.70;99.90
43151;DHT22;28755;51.478;5.702;2023-07-31T11:00:46;18.70;99.90
43151;DHT22;28755;51.478;5.702;2023-07-31T11:03:19;18.70;99.90
43151;DHT22;28755;51.478;5.702;2023-07-31T11:06:08;18.90;99.90
43151;DHT22;28755;51.478;5.702;2023-07-31T11:08:35;19.00;99.90
43151;DHT22;28755;51.478;5.702;2023-07-31T11:11:08;19.00;99.90
43151;DHT22;28755;51.478;5.702;2023-07-31T11:13:40;19.30;99.90
43151;DHT22;28755;51.478;5.702;2023-07-31T11:16:07;19.30;99.90
43151;DHT22;28755;51.478;5.702;2023-07-31T11:18:32;19.30;99.90
43151;DHT22;28755;51.478;5.702;2023-07-31T11:20:58;19.30;99.90
43151;DHT22;28755;51.478;5.702;2023-07-31T11:23:24;19.70;99.90
43151;DHT22;28755;51.478;5.702;2023-07-31T11:25:50;19.90;99.90
43151;DHT22;28755;51.478;5.702;2023-07-31T11:28:17;20.00;99.90
43151;DHT22;28755;51.478;5.702;2023-07-31T11:30:44;19.90;99.90
43151;DHT22;28755;51.478;5.702;2023-07-31T11:33:12;19.80;99.90
43151;DHT22;28755;51.478;5.702;2023-07-31T11:35:45;19.60;99.90
43151;DHT22;28755;51.478;5.702;2023-07-31T11:38:32;19.70;99.90
43151;DHT22;28755;51.478;5.702;2023-07-31T11:41:04;19.70;99.90
43151;DHT22;28755;51.478;5.702;2023-07-31T11:43:33;19.70;99.90
43151;DHT22;28755;51.478;5.702;2023-07-31T11:46:01;19.90;99.90
43151;DHT22;28755;51.478;5.702;2023-07-31T11:48:31;19.90;99.90
43151;DHT22;28755;51.478;5.702;2023-07-31T11:51:01;19.90;99.90
43151;DHT22;28755;51.478;5.702;2023-07-31T11:53:45;19.90;99.90
43151;DHT22;28755;51.478;5.702;2023-07-31T11:56:15;20.10;99.90
43151;DHT22;28755;51.478;5.702;2023-07-31T11:58:43;20.00;99.90
43151;DHT22;28755;51.478;5.702;2023-07-31T12:01:11;19.70;99.90
43151;DHT22;28755;51.478;5.702;2023-07-31T12:03:37;19.70;99.90
43151;DHT22;28755;51.478;5.702;2023-07-31T12:06:03;19.70;99.90
43151;DHT22;28755;51.478;5.702;2023-07-31T12:08:29;19.60;99.90
43151;DHT22;28755;51.478;5.702;2023-07-31T12:11:02;19.40;99.90
43151;DHT22;28755;51.478;5.702;2023-07-31T12:13:31;19.30;99.90
43151;DHT22;28755;51.478;5.702;2023-07-31T12:15:58;19.30;99.90
43151;DHT22;28755;51.478;5.702;2023-07-31T12:18:29;19.40;99.90
43151;DHT22;28755;51.478;5.702;2023-07-31T12:20:57;19.30;99.90
43151;DHT22;28755;51.478;5.702;2023-07-31T12:23:32;19.20;99.90
43151;DHT22;28755;51.478;5.702;2023-07-31T12:26:15;19.10;99.90
43151;DHT22;28755;51.478;5.702;2023-07-31T12:28:45;19.00;99.90
43151;DHT22;28755;51.478;5.702;2023-07-31T12:31:14;19.10;99.90
43151;DHT22;28755;51.478;5.702;2023-07-31T12:33:41;19.10;99.90
43151;DHT22;28755;51.478;5.702;2023-07-31T12:36:09;19.20;99.90
43151;DHT22;28755;51.478;5.702;2023-07-31T12:38:35;19.20;99.90
43151;DHT22;28755;51.478;5.702;2023-07-31T12:41:00;19.30;99.90
43151;DHT22;28755;51.478;5.702;2023-07-31T12:43:26;19.30;99.90
43151;DHT22;28755;51.478;5.702;2023-07-31T12:45:53;19.30;99.90
43151;DHT22;28755;51.478;5.702;2023-07-31T12:48:19;19.30;99.90
43151;DHT22;28755;51.478;5.702;2023-07-31T12:50:44;19.30;99.90
43151;DHT22;28755;51.478;5.702;2023-07-31T12:53:10;19.40;99.90
43151;DHT22;28755;51.478;5.702;2023-07-31T12:55:35;19.50;99.90
43151;DHT22;28755;51.478;5.702;2023-07-31T12:58:02;19.40;99.90
43151;DHT22;28755;51.478;5.702;2023-07-31T13:00:28;19.40;99.90
43151;DHT22;28755;51.478;5.702;2023-07-31T13:02:53;19.40;99.90
43151;DHT22;28755;51.478;5.702;2023-07-31T13:05:19;19.60;99.90
43151;DHT22;28755;51.478;5.702;2023-07-31T13:07:48;19.50;99.90
43151;DHT22;28755;51.478;5.702;2023-07-31T13:10:13;19.70;99.90
43151;DHT22;28755;51.478;5.702;2023-07-31T13:12:39;19.80;99.90
43151;DHT22;28755;51.478;5.702;2023-07-31T13:15:06;19.70;99.90
43151;DHT22;28755;51.478;5.702;2023-07-31T13:17:31;19.70;99.90
43151;DHT22;28755;51.478;5.702;2023-07-31T13:19:57;19.70;99.90
43151;DHT22;28755;51.478;5.702;2023-07-31T13:22:23;19.80;99.90
43151;DHT22;28755;51.478;5.702;2023-07-31T13:24:48;19.80;99.90
43151;DHT22;28755;51.478;5.702;2023-07-31T13:27:14;19.90;99.90
43151;DHT22;28755;51.478;5.702;2023-07-31T13:29:45;19.90;99.90
43151;DHT22;28755;51.478;5.702;2023-07-31T13:32:11;19.90;99.90
43151;DHT22;28755;51.478;5.702;2023-07-31T13:34:36;20.00;99.90
43151;DHT22;28755;51.478;5.702;2023-07-31T13:37:02;20.00;99.90
43151;DHT22;28755;51.478;5.702;2023-07-31T13:39:28;20.00;99.90
43151;DHT22;28755;51.478;5.702;2023-07-31T13:41:53;20.10;99.90
43151;DHT22;28755;51.478;5.702;2023-07-31T13:44:19;20.10;99.90
43151;DHT22;28755;51.478;5.702;2023-07-31T13:46:44;20.20;99.90
43151;DHT22;28755;51.478;5.702;2023-07-31T13:49:10;20.10;99.90
43151;DHT22;28755;51.478;5.702;2023-07-31T13:51:35;20.20;99.90
43151;DHT22;28755;51.478;5.702;2023-07-31T13:54:01;20.10;99.90
43151;DHT22;28755;51.478;5.702;2023-07-31T13:56:27;20.10;99.90
43151;DHT22;28755;51.478;5.702;2023-07-31T13:58:52;19.90;99.90
43151;DHT22;28755;51.478;5.702;2023-07-31T14:01:18;19.90;99.90
43151;DHT22;28755;51.478;5.702;2023-07-31T14:03:43;19.90;99.90
43151;DHT22;28755;51.478;5.702;2023-07-31T14:06:09;19.80;99.90
43151;DHT22;28755;51.478;5.702;2023-07-31T14:08:34;19.80;99.90
43151;DHT22;28755;51.478;5.702;2023-07-31T14:11:00;19.70;99.90
43151;DHT22;28755;51.478;5.702;2023-07-31T14:13:26;19.50;99.90
43151;DHT22;28755;51.478;5.702;2023-07-31T14:15:51;19.30;99.90
43151;DHT22;28755;51.478;5.702;2023-07-31T14:18:17;19.20;99.90
43151;DHT22;28755;51.478;5.702;2023-07-31T14:20:43;19.10;99.90
43151;DHT22;28755;51.478;5.702;2023-07-31T14:23:08;19.00;99.90
43151;DHT22;28755;51.478;5.702;2023-07-31T14:25:34;18.90;99.90
43151;DHT22;28755;51.478;5.702;2023-07-31T14:27:59;19.00;99.90
43151;DHT22;28755;51.478;5.702;2023-07-31T14:30:25;18.90;99.90
43151;DHT22;28755;51.478;5.702;2023-07-31T14:32:51;18.80;99.90
43151;DHT22;28755;51.478;5.702;2023-07-31T14:35:16;18.80;99.90
43151;DHT22;28755;51.478;5.702;2023-07-31T14:37:43;18.90;99.90
43151;DHT22;28755;51.478;5.702;2023-07-31T14:40:10;19.00;99.90
43151;DHT22;28755;51.478;5.702;2023-07-31T14:42:36;19.00;99.90
43151;DHT22;28755;51.478;5.702;2023-07-31T14:45:04;19.10;99.90
43151;DHT22;28755;51.478;5.702;2023-07-31T14:47:30;19.10;99.90
43151;DHT22;28755;51.478;5.702;2023-07-31T14:49:59;19.10;99.90
43151;DHT22;28755;51.478;5.702;2023-07-31T14:52:25;19.10;99.90
43151;DHT22;28755;51.478;5.702;2023-07-31T14:54:51;19.00;99.90
43151;DHT22;28755;51.478;5.702;2023-07-31T14:57:17;19.00;99.90
43151;DHT22;28755;51.478;5.702;2023-07-31T14:59:43;19.00;99.90
43151;DHT22;28755;51.478;5.702;2023-07-31T15:02:09;19.00;99.90
43151;DHT22;28755;51.478;5.702;2023-07-31T15:04:35;18.90;99.90
43151;DHT22;28755;51.478;5.702;2023-07-31T15:07:01;18.90;99.90
43151;DHT22;28755;51.478;5.702;2023-07-31T15:09:27;18.90;99.90
43151;DHT22;28755;51.478;5.702;2023-07-31T15:11:52;18.80;99.90
43151;DHT22;28755;51.478;5.702;2023-07-31T15:14:18;18.80;99.90
43151;DHT22;28755;51.478;5.702;2023-07-31T15:16:44;18.80;99.90
43151;DHT22;28755;51.478;5.702;2023-07-31T15:19:09;18.80;99.90
43151;DHT22;28755;51.478;5.702;2023-07-31T15:21:36;18.80;99.90
43151;DHT22;28755;51.478;5.702;2023-07-31T15:24:02;18.80;99.90
43151;DHT22;28755;51.478;5.702;2023-07-31T15:26:28;18.80;99.90
43151;DHT22;28755;51.478;5.702;2023-07-31T15:29:05;18.70;99.90
43151;DHT22;28755;51.478;5.702;2023-07-31T15:31:43;18.70;99.90
43151;DHT22;28755;51.478;5.702;2023-07-31T15:34:09;18.70;99.90
43151;DHT22;28755;51.478;5.702;2023-07-31T15:36:34;18.70;99.90
43151;DHT22;28755;51.478;5.702;2023-07-31T15:39:00;18.60;99.90
43151;DHT22;28755;51.478;5.702;2023-07-31T15:41:25;18.60;99.90
43151;DHT22;28755;51.478;5.702;2023-07-31T15:43:51;18.60;99.90